createdAt,value
2023-01-29T00:00:29.417Z,57.50
2023-01-29T00:03:16.397Z,57.60
2023-01-29T00:06:06.646Z,57.60
2023-01-29T00:08:52.680Z,57.60
2023-01-29T00:11:38.600Z,57.70
2023-01-29T00:14:27.242Z,57.90
2023-01-29T00:17:15.151Z,58.10
2023-01-29T00:20:03.360Z,58.60
2023-01-29T00:22:48.770Z,58.70
2023-01-29T00:25:36.206Z,58.50
2023-01-29T00:28:21.478Z,58.40
2023-01-29T00:31:15.087Z,58.20
2023-01-29T00:34:01.467Z,58.20
2023-01-29T00:36:49.078Z,58.30
2023-01-29T00:39:47.351Z,59.10
2023-01-29T00:42:54.045Z,58.50
2023-01-29T00:45:42.190Z,58.40
2023-01-29T00:48:27.729Z,58.40
2023-01-29T00:51:15.614Z,58.60
2023-01-29T00:54:06.763Z,58.50
2023-01-29T00:56:54.650Z,58.30
2023-01-29T00:59:42.024Z,58.60
2023-01-29T01:02:46.355Z,58.60
2023-01-29T01:05:32.463Z,58.50
2023-01-29T01:08:36.934Z,58.30
2023-01-29T01:11:22.339Z,58.50
2023-01-29T01:14:08.485Z,58.50
2023-01-29T01:16:53.809Z,58.50
2023-01-29T01:19:39.076Z,58.60
2023-01-29T01:22:26.460Z,58.90
2023-01-29T01:25:12.423Z,59.00
2023-01-29T01:28:03.503Z,59.10
2023-01-29T01:30:49.414Z,59.50
2023-01-29T01:33:38.486Z,59.70
2023-01-29T01:36:28.972Z,59.80
2023-01-29T01:39:14.589Z,60.10
2023-01-29T01:42:00.748Z,60.10
2023-01-29T01:45:04.265Z,60.30
2023-01-29T01:47:56.743Z,60.40
2023-01-29T01:50:56.710Z,60.60
2023-01-29T01:53:48.402Z,60.50
2023-01-29T01:56:40.943Z,60.70
2023-01-29T01:59:27.725Z,60.70
2023-01-29T02:02:32.878Z,61.40
2023-01-29T02:05:37.042Z,60.90
2023-01-29T02:09:08.124Z,60.30
2023-01-29T02:11:55.776Z,60.40
2023-01-29T02:14:43.702Z,60.50
2023-01-29T02:17:31.903Z,60.50
2023-01-29T02:20:25.958Z,60.60
2023-01-29T02:23:37.898Z,60.60
2023-01-29T02:26:32.180Z,60.90
2023-01-29T02:29:50.539Z,61.10
2023-01-29T02:32:58.833Z,61.10
2023-01-29T02:35:53.279Z,60.90
2023-01-29T02:39:00.822Z,61.20
2023-01-29T02:42:11.693Z,61.20
2023-01-29T02:45:18.192Z,61.10
2023-01-29T02:48:04.302Z,61.20
2023-01-29T02:51:01.431Z,61.50
2023-01-29T02:54:13.049Z,61.40
2023-01-29T02:57:03.641Z,61.60
2023-01-29T02:59:51.177Z,61.40
2023-01-29T03:02:46.451Z,61.60
2023-01-29T03:05:33.211Z,61.60
2023-01-29T03:08:29.532Z,62.50
2023-01-29T03:11:16.425Z,61.80
2023-01-29T03:14:09.087Z,62.10
2023-01-29T03:16:54.889Z,62.00
2023-01-29T03:19:49.345Z,62.20
2023-01-29T03:22:36.940Z,62.10
2023-01-29T03:25:43.115Z,62.10
2023-01-29T03:28:48.675Z,62.00
2023-01-29T03:31:52.966Z,62.00
2023-01-29T03:34:51.988Z,62.20
2023-01-29T03:37:48.601Z,62.20
2023-01-29T03:40:55.084Z,62.90
2023-01-29T03:43:53.025Z,62.70
2023-01-29T03:46:45.292Z,62.60
2023-01-29T03:49:58.460Z,62.60
2023-01-29T03:52:53.386Z,62.60
2023-01-29T03:55:45.314Z,62.80
2023-01-29T03:58:50.961Z,63.00
2023-01-29T04:01:50.907Z,63.10
2023-01-29T04:04:39.654Z,63.10
2023-01-29T04:07:26.981Z,63.50
2023-01-29T04:10:19.836Z,63.70
2023-01-29T04:13:14.432Z,64.00
2023-01-29T04:16:01.335Z,64.00
2023-01-29T04:18:48.469Z,64.10
2023-01-29T04:21:38.158Z,64.00
2023-01-29T04:24:23.846Z,64.00
2023-01-29T04:27:41.275Z,64.20
2023-01-29T04:30:40.778Z,64.70
2023-01-29T04:33:44.172Z,65.50
2023-01-29T04:37:04.111Z,65.40
2023-01-29T04:40:00.630Z,65.90
2023-01-29T04:42:56.991Z,66.60
2023-01-29T04:46:09.592Z,67.10
2023-01-29T04:49:34.566Z,67.10
2023-01-29T04:52:49.672Z,67.40
2023-01-29T04:55:56.934Z,67.80
2023-01-29T04:58:47.462Z,68.10
2023-01-29T05:01:35.477Z,68.80
2023-01-29T05:04:25.619Z,69.30
2023-01-29T05:07:14.091Z,69.40
2023-01-29T05:09:59.967Z,69.80
2023-01-29T05:12:50.080Z,70.30
2023-01-29T05:15:42.132Z,70.30
2023-01-29T05:18:29.688Z,70.70
2023-01-29T05:21:15.165Z,71.30
2023-01-29T05:24:09.004Z,71.90
2023-01-29T05:27:13.642Z,73.30
2023-01-29T05:29:59.010Z,75.70
2023-01-29T05:32:44.465Z,78.60
2023-01-29T05:35:30.604Z,78.40
2023-01-29T05:38:18.172Z,79.20
2023-01-29T05:41:04.485Z,79.30
2023-01-29T05:43:50.283Z,78.80
2023-01-29T05:46:38.883Z,78.20
2023-01-29T05:49:24.569Z,78.00
2023-01-29T05:52:10.156Z,77.90
2023-01-29T05:54:55.547Z,77.40
2023-01-29T05:57:43.422Z,77.20
2023-01-29T06:00:30.895Z,77.10
2023-01-29T06:03:16.361Z,76.60
2023-01-29T06:06:02.621Z,76.70
2023-01-29T06:08:50.494Z,76.80
2023-01-29T06:11:37.910Z,76.60
2023-01-29T06:14:25.794Z,76.40
2023-01-29T06:17:11.370Z,76.40
2023-01-29T06:19:59.079Z,76.00
2023-01-29T06:22:46.393Z,76.00
2023-01-29T06:25:32.076Z,76.00
2023-01-29T06:28:17.401Z,75.90
2023-01-29T06:31:22.052Z,76.60
2023-01-29T06:34:11.196Z,76.80
2023-01-29T06:36:56.868Z,77.40
2023-01-29T06:39:42.173Z,77.60
2023-01-29T06:42:28.154Z,77.50
2023-01-29T06:45:14.470Z,77.80
2023-01-29T06:48:01.867Z,77.60
2023-01-29T06:50:55.013Z,78.40
2023-01-29T06:53:43.366Z,80.10
2023-01-29T06:56:30.360Z,79.60
2023-01-29T06:59:15.888Z,79.60
2023-01-29T07:02:01.482Z,80.10
2023-01-29T07:04:49.263Z,81.30
2023-01-29T07:07:36.819Z,82.60
2023-01-29T07:10:21.955Z,82.20
2023-01-29T07:13:07.430Z,82.60
2023-01-29T07:16:00.909Z,82.40
2023-01-29T07:18:46.580Z,83.00
2023-01-29T07:21:31.913Z,82.60
2023-01-29T07:24:17.250Z,84.00
2023-01-29T07:27:02.794Z,83.30
2023-01-29T07:29:47.950Z,99.90
2023-01-29T07:32:33.214Z,99.30
2023-01-29T07:35:19.101Z,93.10
2023-01-29T07:38:04.328Z,91.80
2023-01-29T07:40:54.094Z,90.90
2023-01-29T07:43:39.548Z,90.20
2023-01-29T07:46:27.141Z,88.30
2023-01-29T07:49:15.156Z,88.00
2023-01-29T07:52:00.455Z,86.90
2023-01-29T07:54:48.559Z,85.20
2023-01-29T07:57:33.834Z,84.80
2023-01-29T08:00:20.105Z,84.60
2023-01-29T08:03:09.668Z,84.50
2023-01-29T08:05:57.537Z,83.80
2023-01-29T08:08:43.549Z,83.70
2023-01-29T08:11:31.811Z,83.60
2023-01-29T08:14:17.074Z,83.30
2023-01-29T08:17:02.742Z,83.40
2023-01-29T08:19:48.334Z,83.50
2023-01-29T08:22:33.810Z,83.50
2023-01-29T08:25:21.370Z,83.10
2023-01-29T08:28:07.200Z,82.90
2023-01-29T08:30:52.614Z,82.80
2023-01-29T08:33:40.365Z,84.40
2023-01-29T08:36:26.585Z,84.70
2023-01-29T08:39:12.056Z,85.50
2023-01-29T08:41:57.809Z,85.40
2023-01-29T08:44:45.487Z,85.00
2023-01-29T08:47:30.769Z,85.20
2023-01-29T08:50:18.293Z,85.40
2023-01-29T08:53:08.581Z,84.30
2023-01-29T08:55:54.552Z,82.90
2023-01-29T08:58:39.805Z,82.60
2023-01-29T09:01:25.500Z,82.40
2023-01-29T09:04:10.689Z,81.80
2023-01-29T09:06:56.499Z,81.60
2023-01-29T09:09:41.733Z,82.00
2023-01-29T09:12:27.479Z,81.20
2023-01-29T09:15:13.024Z,80.70
2023-01-29T09:17:58.734Z,80.60
2023-01-29T09:20:46.121Z,80.50
2023-01-29T09:23:31.363Z,79.70
2023-01-29T09:26:19.009Z,80.00
2023-01-29T09:29:04.899Z,79.30
2023-01-29T09:31:50.719Z,79.00
2023-01-29T09:34:36.449Z,79.10
2023-01-29T09:37:23.447Z,77.80
2023-01-29T09:40:38.097Z,77.60
2023-01-29T09:43:40.784Z,77.30
2023-01-29T09:46:45.272Z,76.80
2023-01-29T09:49:37.822Z,75.70
2023-01-29T09:52:27.902Z,75.20
2023-01-29T09:55:26.246Z,74.60
2023-01-29T09:58:24.791Z,74.40
2023-01-29T10:01:34.953Z,73.60
2023-01-29T10:04:35.170Z,73.00
2023-01-29T10:08:01.297Z,72.80
2023-01-29T10:11:01.111Z,73.30
2023-01-29T10:14:45.195Z,71.80
2023-01-29T10:17:41.469Z,71.70
2023-01-29T10:20:46.480Z,71.60
2023-01-29T10:23:38.387Z,70.90
2023-01-29T10:26:27.162Z,71.00
2023-01-29T10:29:18.641Z,69.60
2023-01-29T10:32:05.994Z,69.10
2023-01-29T10:34:57.472Z,68.60
2023-01-29T10:37:43.869Z,68.30
2023-01-29T10:41:00.235Z,68.00
2023-01-29T10:43:54.431Z,67.30
2023-01-29T10:46:51.003Z,67.90
2023-01-29T10:49:44.263Z,67.30
2023-01-29T10:52:38.693Z,66.70
2023-01-29T10:55:51.420Z,65.10
2023-01-29T10:58:46.785Z,65.60
2023-01-29T11:01:32.438Z,64.20
2023-01-29T11:04:18.660Z,63.70
2023-01-29T11:07:07.084Z,62.80
2023-01-29T11:10:17.299Z,63.10
2023-01-29T11:13:07.472Z,62.80
2023-01-29T11:15:53.759Z,62.70
2023-01-29T11:18:51.404Z,61.80
2023-01-29T11:21:59.236Z,62.10
2023-01-29T11:24:47.598Z,62.30
2023-01-29T11:27:35.653Z,61.10
2023-01-29T11:30:26.351Z,60.30
2023-01-29T11:33:24.367Z,60.60
2023-01-29T11:36:35.165Z,59.90
2023-01-29T11:39:23.341Z,59.40
2023-01-29T11:42:22.339Z,59.40
2023-01-29T11:45:33.932Z,59.80
2023-01-29T11:48:23.519Z,59.40
2023-01-29T11:51:12.497Z,59.40
2023-01-29T11:54:02.072Z,58.90
2023-01-29T11:56:48.915Z,58.80
2023-01-29T11:59:49.980Z,58.90
2023-01-29T12:02:44.180Z,58.70
2023-01-29T12:05:31.946Z,57.60
2023-01-29T12:08:18.899Z,58.20
2023-01-29T12:11:11.225Z,58.50
2023-01-29T12:14:05.186Z,57.40
2023-01-29T12:17:03.817Z,57.40
2023-01-29T12:19:59.103Z,57.20
2023-01-29T12:22:58.059Z,57.30
2023-01-29T12:25:58.585Z,57.80
2023-01-29T12:29:21.618Z,57.80
2023-01-29T12:32:26.005Z,57.70
2023-01-29T12:35:23.166Z,57.80
2023-01-29T12:38:20.891Z,57.10
2023-01-29T12:41:11.614Z,57.40
2023-01-29T12:44:05.736Z,58.10
2023-01-29T12:46:56.679Z,58.00
2023-01-29T12:49:45.908Z,58.60
2023-01-29T12:52:46.211Z,58.40
2023-01-29T12:55:41.940Z,58.50
2023-01-29T12:58:36.554Z,59.50
2023-01-29T13:01:40.807Z,59.00
2023-01-29T13:04:45.550Z,59.40
2023-01-29T13:07:42.309Z,60.20
2023-01-29T13:10:37.250Z,61.00
2023-01-29T13:13:28.951Z,60.20
2023-01-29T13:16:15.952Z,60.10
2023-01-29T13:19:15.117Z,60.20
2023-01-29T13:22:10.904Z,60.60
2023-01-29T13:25:05.055Z,61.30
2023-01-29T13:27:54.469Z,61.30
2023-01-29T13:30:40.678Z,61.60
2023-01-29T13:33:28.638Z,61.30
2023-01-29T13:36:19.519Z,61.40
2023-01-29T13:39:19.195Z,61.40
2023-01-29T13:42:21.895Z,61.60
2023-01-29T13:45:10.126Z,62.20
2023-01-29T13:48:21.981Z,62.10
2023-01-29T13:51:17.772Z,62.20
2023-01-29T13:54:08.026Z,63.00
2023-01-29T13:56:59.245Z,63.10
2023-01-29T13:59:54.100Z,63.00
2023-01-29T14:02:39.591Z,63.00
2023-01-29T14:05:31.309Z,63.00
2023-01-29T14:08:35.151Z,63.10
2023-01-29T14:11:21.643Z,63.70
2023-01-29T14:14:45.829Z,63.80
2023-01-29T14:17:31.458Z,64.90
2023-01-29T14:20:20.800Z,65.50
2023-01-29T14:23:08.661Z,66.30
2023-01-29T14:25:56.957Z,66.80
2023-01-29T14:28:43.959Z,67.70
2023-01-29T14:31:51.881Z,68.80
2023-01-29T14:34:47.769Z,69.70
2023-01-29T14:37:36.827Z,69.20
2023-01-29T14:40:27.509Z,69.80
2023-01-29T14:43:21.048Z,70.50
2023-01-29T14:46:36.779Z,72.10
2023-01-29T14:49:51.744Z,72.10
2023-01-29T14:52:41.598Z,73.50
2023-01-29T14:56:07.869Z,73.60
2023-01-29T14:59:02.354Z,74.40
2023-01-29T15:01:58.459Z,74.50
2023-01-29T15:04:53.513Z,74.60
2023-01-29T15:08:08.584Z,74.60
2023-01-29T15:11:19.062Z,74.90
2023-01-29T15:14:29.645Z,75.40
2023-01-29T15:17:27.546Z,76.80
2023-01-29T15:20:38.188Z,76.30
2023-01-29T15:23:32.601Z,77.40
2023-01-29T15:26:27.007Z,77.30
2023-01-29T15:29:25.011Z,77.90
2023-01-29T15:32:17.669Z,78.10
2023-01-29T15:35:28.361Z,77.80
2023-01-29T15:38:21.170Z,77.60
2023-01-29T15:41:24.283Z,77.70
2023-01-29T15:44:24.439Z,77.40
2023-01-29T15:47:10.126Z,77.30
2023-01-29T15:49:57.449Z,77.30
2023-01-29T15:52:45.997Z,77.10
2023-01-29T15:55:32.534Z,76.90
2023-01-29T15:58:30.361Z,76.40
2023-01-29T16:01:16.758Z,76.40
2023-01-29T16:04:03.803Z,76.60
2023-01-29T16:06:51.905Z,76.40
2023-01-29T16:09:40.510Z,76.70
2023-01-29T16:12:26.279Z,76.40
2023-01-29T16:15:20.252Z,76.30
2023-01-29T16:18:35.169Z,76.60
2023-01-29T16:21:43.530Z,76.60
2023-01-29T16:24:31.115Z,76.50
2023-01-29T16:27:19.785Z,76.20
2023-01-29T16:30:07.192Z,76.20
2023-01-29T16:32:52.785Z,76.00
2023-01-29T16:35:38.650Z,76.10
2023-01-29T16:38:31.129Z,76.00
2023-01-29T16:41:22.892Z,75.80
2023-01-29T16:44:20.375Z,75.60
2023-01-29T16:47:13.917Z,75.30
2023-01-29T16:50:01.307Z,75.20
2023-01-29T16:53:27.369Z,75.60
2023-01-29T16:56:12.768Z,75.30
2023-01-29T16:59:01.893Z,75.30
2023-01-29T17:01:51.809Z,75.00
2023-01-29T17:04:41.926Z,75.00
2023-01-29T17:07:29.082Z,74.80
2023-01-29T17:10:23.048Z,74.60
2023-01-29T17:13:16.925Z,74.40
2023-01-29T17:16:15.399Z,74.10
2023-01-29T17:19:01.919Z,74.20
2023-01-29T17:21:48.396Z,74.10
2023-01-29T17:24:33.982Z,74.00
2023-01-29T17:27:21.591Z,73.40
2023-01-29T17:30:16.091Z,73.60
2023-01-29T17:33:02.921Z,73.70
2023-01-29T17:35:49.731Z,73.50
2023-01-29T17:38:35.510Z,73.50
2023-01-29T17:41:27.721Z,73.60
2023-01-29T17:44:13.042Z,73.70
2023-01-29T17:46:58.668Z,73.70
2023-01-29T17:49:46.697Z,73.70
2023-01-29T17:52:32.260Z,74.10
2023-01-29T17:55:20.566Z,73.50
2023-01-29T17:58:05.926Z,73.70
2023-01-29T18:00:52.683Z,73.50
2023-01-29T18:03:38.588Z,73.70
2023-01-29T18:06:29.406Z,73.80
2023-01-29T18:09:18.864Z,73.70
2023-01-29T18:12:10.267Z,74.10
2023-01-29T18:14:56.061Z,74.10
2023-01-29T18:17:42.335Z,74.10
2023-01-29T18:20:27.884Z,74.10
2023-01-29T18:23:13.612Z,73.70
2023-01-29T18:25:59.579Z,73.60
2023-01-29T18:28:45.250Z,73.70
2023-01-29T18:31:31.442Z,73.60
2023-01-29T18:34:16.929Z,73.60
2023-01-29T18:37:02.212Z,73.50
2023-01-29T18:39:47.539Z,73.30
2023-01-29T18:42:36.136Z,73.10
2023-01-29T18:45:24.499Z,72.90
2023-01-29T18:48:10.365Z,72.70
2023-01-29T18:50:55.656Z,72.80
2023-01-29T18:53:41.112Z,72.70
2023-01-29T18:56:26.304Z,72.60
2023-01-29T18:59:12.448Z,72.30
2023-01-29T19:01:58.125Z,72.50
2023-01-29T19:04:43.561Z,72.00
2023-01-29T19:07:29.035Z,72.00
2023-01-29T19:10:17.008Z,71.90
2023-01-29T19:13:02.606Z,71.80
2023-01-29T19:15:50.360Z,71.60
2023-01-29T19:18:35.882Z,71.70
2023-01-29T19:21:21.779Z,71.70
2023-01-29T19:24:10.623Z,71.90
2023-01-29T19:26:55.890Z,72.00
2023-01-29T19:29:43.839Z,72.00
2023-01-29T19:32:30.140Z,72.00
2023-01-29T19:35:16.047Z,72.00
2023-01-29T19:38:01.877Z,72.40
2023-01-29T19:40:51.315Z,72.30
2023-01-29T19:43:41.953Z,72.30
2023-01-29T19:46:29.038Z,71.90
2023-01-29T19:49:20.744Z,72.00
2023-01-29T19:52:14.928Z,71.40
2023-01-29T19:55:07.203Z,70.80
2023-01-29T19:57:57.043Z,70.70
2023-01-29T20:00:44.953Z,70.00
2023-01-29T20:03:30.893Z,69.70
2023-01-29T20:06:19.368Z,69.50
2023-01-29T20:09:08.575Z,69.00
2023-01-29T20:11:56.039Z,68.20
2023-01-29T20:14:48.569Z,67.90
2023-01-29T20:17:34.279Z,68.00
2023-01-29T20:20:22.190Z,68.40
2023-01-29T20:23:15.539Z,68.30
2023-01-29T20:26:03.467Z,68.00
2023-01-29T20:28:49.135Z,68.20
2023-01-29T20:31:37.382Z,68.10
2023-01-29T20:34:24.031Z,68.00
2023-01-29T20:37:09.582Z,68.40
2023-01-29T20:39:57.543Z,68.60
2023-01-29T20:42:45.356Z,68.60
2023-01-29T20:45:33.476Z,69.00
2023-01-29T20:48:19.564Z,69.80
2023-01-29T20:51:08.168Z,69.60
2023-01-29T20:53:55.601Z,69.90
2023-01-29T20:56:47.819Z,69.60
2023-01-29T20:59:34.014Z,69.70
2023-01-29T21:02:19.863Z,69.90
2023-01-29T21:05:06.571Z,69.70
2023-01-29T21:07:54.184Z,69.80
2023-01-29T21:10:41.003Z,69.70
2023-01-29T21:13:27.796Z,69.60
2023-01-29T21:16:14.290Z,69.40
2023-01-29T21:19:00.430Z,69.30
2023-01-29T21:21:45.997Z,69.50
2023-01-29T21:24:31.585Z,68.90
2023-01-29T21:27:17.009Z,69.10
2023-01-29T21:30:10.297Z,68.90
2023-01-29T21:32:55.689Z,68.80
2023-01-29T21:35:46.212Z,68.60
2023-01-29T21:38:31.547Z,68.80
2023-01-29T21:41:19.200Z,69.40
2023-01-29T21:44:04.811Z,68.60
2023-01-29T21:46:50.396Z,68.60
2023-01-29T21:49:35.836Z,68.90
2023-01-29T21:52:21.605Z,68.80
2023-01-29T21:55:12.253Z,69.10
2023-01-29T21:57:58.743Z,68.80
2023-01-29T22:00:48.656Z,68.70
2023-01-29T22:03:34.358Z,68.70
2023-01-29T22:06:20.145Z,68.60
2023-01-29T22:09:05.755Z,68.70
2023-01-29T22:11:55.272Z,68.60
2023-01-29T22:14:41.994Z,68.70
2023-01-29T22:17:28.464Z,69.00
2023-01-29T22:20:14.732Z,68.80
2023-01-29T22:23:00.845Z,68.80
2023-01-29T22:25:48.876Z,68.80
2023-01-29T22:28:34.165Z,68.40
2023-01-29T22:31:19.936Z,68.30
2023-01-29T22:34:05.712Z,68.40
2023-01-29T22:36:53.861Z,68.00
2023-01-29T22:39:39.384Z,68.00
2023-01-29T22:42:24.684Z,67.70
2023-01-29T22:45:11.168Z,67.60
2023-01-29T22:48:00.023Z,67.60
2023-01-29T22:50:53.879Z,67.50
2023-01-29T22:53:44.194Z,67.20
2023-01-29T22:56:30.680Z,67.10
2023-01-29T22:59:16.004Z,66.60
2023-01-29T23:02:01.369Z,66.70
2023-01-29T23:04:49.427Z,66.70
2023-01-29T23:07:34.952Z,66.70
2023-01-29T23:10:20.524Z,66.70
2023-01-29T23:13:09.562Z,66.50
2023-01-29T23:15:59.643Z,66.50
2023-01-29T23:18:50.182Z,66.40
2023-01-29T23:21:35.590Z,66.00
2023-01-29T23:24:21.177Z,65.60
2023-01-29T23:27:16.001Z,65.40
2023-01-29T23:30:01.916Z,65.40
2023-01-29T23:32:47.747Z,66.10
2023-01-29T23:35:33.216Z,66.10
2023-01-29T23:38:21.402Z,66.00
2023-01-29T23:41:06.696Z,65.60
2023-01-29T23:43:55.490Z,65.30
2023-01-29T23:46:48.728Z,65.30
2023-01-29T23:49:34.869Z,64.80
2023-01-29T23:52:20.481Z,64.50
2023-01-29T23:55:06.519Z,64.80
2023-01-29T23:57:51.847Z,64.50
